createdAt,value
2018-11-14T00:00:59.075Z,60
2018-11-14T00:02:00.419Z,59.5
2018-11-14T00:03:01.188Z,59.6
2018-11-14T00:04:02.232Z,59.6
2018-11-14T00:05:03.852Z,59.7
2018-11-14T00:06:05.471Z,59.5
2018-11-14T00:07:07.106Z,59.7
2018-11-14T00:08:08.726Z,59.7
2018-11-14T00:09:10.622Z,59.7
2018-11-14T00:10:12.604Z,59.7
2018-11-14T00:11:14.448Z,59.6
2018-11-14T00:12:16.071Z,59.5
2018-11-14T00:13:17.690Z,59.6
2018-11-14T00:14:19.307Z,59.9
2018-11-14T00:15:20.911Z,59.7
2018-11-14T00:16:21.951Z,59.7
2018-11-14T00:17:23.576Z,59.6
2018-11-14T00:18:25.197Z,59.4
2018-11-14T00:19:26.673Z,59.4
2018-11-14T00:20:27.737Z,59.5
2018-11-14T00:21:28.780Z,59.5
2018-11-14T00:22:30.127Z,59.3
2018-11-14T00:23:31.744Z,59.4
2018-11-14T00:24:33.359Z,59.4
2018-11-14T00:25:35.082Z,59.5
2018-11-14T00:26:36.182Z,59.5
2018-11-14T00:27:37.839Z,59.4
2018-11-14T00:28:39.458Z,59.6
2018-11-14T00:29:41.979Z,59.5
2018-11-14T00:30:43.981Z,59.4
2018-11-14T00:31:45.878Z,59.6
2018-11-14T00:32:47.502Z,59.6
2018-11-14T00:33:48.843Z,59.5
2018-11-14T00:34:50.708Z,59.3
2018-11-14T00:35:52.970Z,59.4
2018-11-14T00:36:54.954Z,59.5
2018-11-14T00:37:56.645Z,59.4
2018-11-14T00:38:58.240Z,59.5
2018-11-14T00:39:59.842Z,59.5
2018-11-14T00:41:01.741Z,59.3
2018-11-14T00:42:03.340Z,59.5
2018-11-14T00:43:04.659Z,59.4
2018-11-14T00:44:06.552Z,59.4
2018-11-14T00:45:08.149Z,59.4
2018-11-14T00:46:10.045Z,59.5
2018-11-14T00:47:11.670Z,59.3
2018-11-14T00:48:13.010Z,59.5
2018-11-14T00:49:14.332Z,59.4
2018-11-14T00:50:15.950Z,59.4
2018-11-14T00:51:17.272Z,59.4
2018-11-14T00:52:18.889Z,59.4
2018-11-14T00:53:20.788Z,59.4
2018-11-14T00:54:22.130Z,59.3
2018-11-14T00:55:23.470Z,59.6
2018-11-14T00:56:25.371Z,59.4
2018-11-14T00:57:27.265Z,59.5
2018-11-14T00:58:28.898Z,59.5
2018-11-14T00:59:30.242Z,59.5
2018-11-14T01:00:31.594Z,59.6
2018-11-14T01:01:33.503Z,59.6
2018-11-14T01:02:37.391Z,59.7
2018-11-14T01:03:38.975Z,59.6
2018-11-14T01:04:40.645Z,59.5
2018-11-14T01:05:42.265Z,59.5
2018-11-14T01:06:43.884Z,59.4
2018-11-14T01:07:45.784Z,59.6
2018-11-14T01:08:47.121Z,59.5
2018-11-14T01:09:48.742Z,59.6
2018-11-14T01:10:50.490Z,59.4
2018-11-14T01:11:52.114Z,59.3
2018-11-14T01:12:53.487Z,59.5
2018-11-14T01:13:54.847Z,59.5
2018-11-14T01:14:56.472Z,59.5
2018-11-14T01:15:58.369Z,59.4
2018-11-14T01:16:59.991Z,59.4
2018-11-14T01:18:01.889Z,59.6
2018-11-14T01:19:02.952Z,59.5
2018-11-14T01:20:04.847Z,59.6
2018-11-14T01:21:06.450Z,59.6
2018-11-14T01:22:08.348Z,59.5
2018-11-14T01:23:09.668Z,59.4
2018-11-14T01:24:10.994Z,59.5
2018-11-14T01:25:12.600Z,59.6
2018-11-14T01:26:14.210Z,59.5
2018-11-14T01:27:15.533Z,59.5
2018-11-14T01:28:17.129Z,59.6
2018-11-14T01:29:18.470Z,59.6
2018-11-14T01:30:20.079Z,59.8
2018-11-14T01:31:21.403Z,59.7
2018-11-14T01:32:23.022Z,59.5
2018-11-14T01:33:24.634Z,59.4
2018-11-14T01:34:26.252Z,59.6
2018-11-14T01:35:27.874Z,59.5
2018-11-14T01:36:29.195Z,59.6
2018-11-14T01:37:31.092Z,59.5
2018-11-14T01:38:32.434Z,59.6
2018-11-14T01:39:34.033Z,59.7
2018-11-14T01:40:35.653Z,59.2
2018-11-14T01:41:37.260Z,59.3
2018-11-14T01:42:38.878Z,59.2
2018-11-14T01:43:40.496Z,59.2
2018-11-14T01:44:42.093Z,59.2
2018-11-14T01:45:43.419Z,59.4
2018-11-14T01:46:44.739Z,59.3
2018-11-14T01:47:46.365Z,59.3
2018-11-14T01:48:47.683Z,59.3
2018-11-14T01:49:49.005Z,59.4
2018-11-14T01:50:50.630Z,59.3
2018-11-14T01:51:52.522Z,59.2
2018-11-14T01:52:54.416Z,59.1
2018-11-14T01:53:56.037Z,59.2
2018-11-14T01:54:57.656Z,59.2
2018-11-14T01:55:59.266Z,59.4
2018-11-14T01:57:01.163Z,59.3
2018-11-14T01:58:02.498Z,59.3
2018-11-14T01:59:03.818Z,59.4
2018-11-14T02:00:05.434Z,59.4
2018-11-14T02:01:06.199Z,59.4
2018-11-14T02:02:07.541Z,59.2
2018-11-14T02:03:09.175Z,59.4
2018-11-14T02:04:10.495Z,59.1
2018-11-14T02:05:11.835Z,59.2
2018-11-14T02:06:13.456Z,59.4
2018-11-14T02:07:14.796Z,59.3
2018-11-14T02:08:16.149Z,59.4
2018-11-14T02:09:17.767Z,59.3
2018-11-14T02:10:18.810Z,59.4
2018-11-14T02:11:20.135Z,59.3
2018-11-14T02:12:21.456Z,59.2
2018-11-14T02:13:23.077Z,59.3
2018-11-14T02:14:24.696Z,59.3
2018-11-14T02:15:26.039Z,59.1
2018-11-14T02:16:27.659Z,59.4
2018-11-14T02:17:29.282Z,59.3
2018-11-14T02:18:30.900Z,59.3
2018-11-14T02:19:32.523Z,59.1
2018-11-14T02:20:33.296Z,59.3
2018-11-14T02:21:34.917Z,59.3
2018-11-14T02:22:36.240Z,59.2
2018-11-14T02:23:37.836Z,59.2
2018-11-14T02:24:39.463Z,59.2
2018-11-14T02:25:40.800Z,59.3
2018-11-14T02:26:42.141Z,59.1
2018-11-14T02:27:43.759Z,59.6
2018-11-14T02:28:45.655Z,59.7
2018-11-14T02:29:46.702Z,59.3
2018-11-14T02:30:48.330Z,59.3
2018-11-14T02:31:49.948Z,59.2
2018-11-14T02:32:51.580Z,59.1
2018-11-14T02:33:53.481Z,59.4
2018-11-14T02:34:55.100Z,59.2
2018-11-14T02:35:56.148Z,59
2018-11-14T02:36:57.492Z,59.7
2018-11-14T02:37:59.389Z,59.5
2018-11-14T02:39:01.008Z,59.5
2018-11-14T02:40:02.351Z,59.6
2018-11-14T02:41:03.399Z,59.1
2018-11-14T02:42:05.444Z,59.6
2018-11-14T02:43:07.062Z,59.6
2018-11-14T02:44:08.958Z,59.6
2018-11-14T02:45:10.283Z,59.4
2018-11-14T02:46:11.912Z,59.7
2018-11-14T02:47:13.237Z,59.6
2018-11-14T02:48:14.281Z,59.6
2018-11-14T02:49:15.328Z,59.6
2018-11-14T02:50:16.946Z,59.6
2018-11-14T02:51:18.548Z,59.6
2018-11-14T02:52:19.929Z,59.1
2018-11-14T02:53:21.250Z,59.5
2018-11-14T02:54:23.159Z,59.6
2018-11-14T02:55:25.047Z,59.6
2018-11-14T02:56:26.386Z,59.6
2018-11-14T02:57:28.019Z,59.5
2018-11-14T02:58:29.915Z,59.6
2018-11-14T02:59:31.822Z,59.5
2018-11-14T03:00:33.424Z,59.6
2018-11-14T03:01:35.044Z,59.6
2018-11-14T03:02:36.090Z,59.5
2018-11-14T03:03:37.421Z,59.5
2018-11-14T03:04:39.032Z,59.5
2018-11-14T03:05:40.946Z,59.5
2018-11-14T03:06:42.566Z,59.6
2018-11-14T03:07:44.472Z,59.5
2018-11-14T03:08:46.092Z,59.5
2018-11-14T03:09:47.994Z,59.6
2018-11-14T03:10:49.613Z,59.5
2018-11-14T03:11:51.517Z,59.6
2018-11-14T03:12:52.588Z,59.7
2018-11-14T03:13:54.210Z,59.7
2018-11-14T03:14:56.120Z,59.5
2018-11-14T03:15:57.740Z,59.7
2018-11-14T03:16:58.792Z,59.7
2018-11-14T03:18:00.113Z,59.6
2018-11-14T03:19:01.734Z,59.6
2018-11-14T03:20:02.803Z,59.7
2018-11-14T03:21:04.122Z,59.6
2018-11-14T03:22:05.722Z,59.7
2018-11-14T03:23:07.068Z,59.6
2018-11-14T03:24:08.694Z,59.5
2018-11-14T03:25:10.321Z,59.6
2018-11-14T03:26:12.217Z,59.7
2018-11-14T03:27:13.838Z,59.6
2018-11-14T03:28:15.192Z,59.6
2018-11-14T03:29:17.092Z,59.4
2018-11-14T03:30:19.001Z,59.2
2018-11-14T03:31:20.910Z,59.2
2018-11-14T03:32:22.265Z,59.2
2018-11-14T03:33:23.876Z,59.2
2018-11-14T03:34:25.496Z,59.3
2018-11-14T03:35:26.840Z,59.1
2018-11-14T03:36:27.903Z,59.3
2018-11-14T03:37:29.244Z,59.1
2018-11-14T03:38:30.844Z,59.2
2018-11-14T03:39:32.489Z,59.3
2018-11-14T03:40:33.812Z,59.2
2018-11-14T03:41:35.433Z,59.1
2018-11-14T03:42:37.034Z,59.2
2018-11-14T03:43:38.635Z,59.3
2018-11-14T03:44:40.256Z,59.4
2018-11-14T03:45:41.857Z,59.2
2018-11-14T03:46:43.479Z,59.3
2018-11-14T03:47:45.386Z,59.4
2018-11-14T03:48:47.282Z,59.3
2018-11-14T03:49:48.882Z,59.2
2018-11-14T03:50:49.927Z,59.2
2018-11-14T03:51:51.829Z,59.3
2018-11-14T03:52:53.449Z,59.2
2018-11-14T03:53:54.773Z,59.3
2018-11-14T03:54:56.093Z,59.3
2018-11-14T03:55:57.713Z,59.2
2018-11-14T03:56:59.337Z,59.3
2018-11-14T03:58:00.676Z,59.2
2018-11-14T03:59:02.022Z,59.4
2018-11-14T04:00:03.368Z,59.4
2018-11-14T04:01:04.407Z,59.3
2018-11-14T04:02:05.731Z,59.3
2018-11-14T04:03:07.057Z,59.3
2018-11-14T04:04:08.675Z,59.4
2018-11-14T04:05:10.297Z,59.2
2018-11-14T04:06:11.066Z,59.3
2018-11-14T04:07:12.406Z,59.1
2018-11-14T04:08:14.027Z,59.2
2018-11-14T04:09:16.159Z,59.4
2018-11-14T04:10:18.239Z,59.3
2018-11-14T04:11:20.138Z,59.2
2018-11-14T04:12:21.853Z,59.3
2018-11-14T04:13:23.299Z,59.2
2018-11-14T04:14:24.916Z,59.4
2018-11-14T04:15:26.263Z,59.4
2018-11-14T04:16:27.904Z,59.4
2018-11-14T04:17:29.225Z,59.2
2018-11-14T04:18:31.124Z,59.1
2018-11-14T04:19:33.031Z,59.1
2018-11-14T04:20:34.650Z,59.1
2018-11-14T04:21:36.274Z,59.2
2018-11-14T04:22:37.869Z,59
2018-11-14T04:23:39.491Z,59.2
2018-11-14T04:24:41.092Z,59.2
2018-11-14T04:25:42.713Z,59.1
2018-11-14T04:26:43.779Z,59.2
2018-11-14T04:27:45.102Z,59.2
2018-11-14T04:28:46.722Z,59.2
2018-11-14T04:29:47.493Z,59
2018-11-14T04:30:49.391Z,58.7
2018-11-14T04:31:51.006Z,58.7
2018-11-14T04:32:52.905Z,58.7
2018-11-14T04:33:54.527Z,58.8
2018-11-14T04:34:55.848Z,58.6
2018-11-14T04:35:57.468Z,58.7
2018-11-14T04:36:58.518Z,58.8
2018-11-14T04:38:00.418Z,58.7
2018-11-14T04:39:02.311Z,58.8
2018-11-14T04:40:03.931Z,58.5
2018-11-14T04:41:05.066Z,58.6
2018-11-14T04:42:06.674Z,58.5
2018-11-14T04:43:08.293Z,58.4
2018-11-14T04:44:10.210Z,58.4
2018-11-14T04:45:11.811Z,58.5
2018-11-14T04:46:13.413Z,58.6
2018-11-14T04:47:15.033Z,58.5
2018-11-14T04:48:16.949Z,58.7
2018-11-14T04:49:18.721Z,58.9
2018-11-14T04:50:20.622Z,58.7
2018-11-14T04:51:22.248Z,58.5
2018-11-14T04:52:24.142Z,58.5
2018-11-14T04:53:25.485Z,58.1
2018-11-14T04:54:27.382Z,58.5
2018-11-14T04:55:28.427Z,58.5
2018-11-14T04:56:30.048Z,58.6
2018-11-14T04:57:31.399Z,58.6
2018-11-14T04:58:32.986Z,58.5
2018-11-14T04:59:34.617Z,58.6
2018-11-14T05:00:35.973Z,58.6
2018-11-14T05:01:37.889Z,58.6
2018-11-14T05:02:39.813Z,58.5
2018-11-14T05:03:41.210Z,58.1
2018-11-14T05:04:42.528Z,58.7
2018-11-14T05:05:44.150Z,58.6
2018-11-14T05:06:45.767Z,58.2
2018-11-14T05:07:47.388Z,58.1
2018-11-14T05:08:49.010Z,58.1
2018-11-14T05:09:50.908Z,58.1
2018-11-14T05:10:52.228Z,58.3
2018-11-14T05:11:53.830Z,58.2
2018-11-14T05:12:55.680Z,58.3
2018-11-14T05:13:57.798Z,58.1
2018-11-14T05:14:59.140Z,58.2
2018-11-14T05:16:00.736Z,58.4
2018-11-14T05:17:02.057Z,58.2
2018-11-14T05:18:03.678Z,58.4
2018-11-14T05:19:05.022Z,58.1
2018-11-14T05:20:06.966Z,58.1
2018-11-14T05:21:08.031Z,58.2
2018-11-14T05:22:09.928Z,58.3
2018-11-14T05:23:11.840Z,58.3
2018-11-14T05:24:13.735Z,58.2
2018-11-14T05:25:15.651Z,58.3
2018-11-14T05:26:17.537Z,58.3
2018-11-14T05:27:18.859Z,58.4
2018-11-14T05:28:20.182Z,58.3
2018-11-14T05:29:21.784Z,58.3
2018-11-14T05:30:23.103Z,58.1
2018-11-14T05:31:24.731Z,58.2
2018-11-14T05:32:26.628Z,58.4
2018-11-14T05:33:27.667Z,58.3
2018-11-14T05:34:29.011Z,58
2018-11-14T05:35:30.632Z,58
2018-11-14T05:36:31.958Z,58
2018-11-14T05:37:33.577Z,58
2018-11-14T05:38:35.197Z,57.9
2018-11-14T05:39:36.939Z,57.9
2018-11-14T05:40:38.721Z,57.7
2018-11-14T05:41:40.042Z,58.2
2018-11-14T05:42:41.664Z,57.6
2018-11-14T05:43:42.994Z,58
2018-11-14T05:44:44.892Z,57.8
2018-11-14T05:45:46.512Z,57.8
2018-11-14T05:46:47.869Z,57.7
2018-11-14T05:47:49.192Z,57.8
2018-11-14T05:48:50.539Z,57.7
2018-11-14T05:49:52.432Z,57.9
2018-11-14T05:50:54.338Z,57.8
2018-11-14T05:51:56.234Z,58
2018-11-14T05:52:58.133Z,57.9
2018-11-14T05:54:00.028Z,57.7
2018-11-14T05:55:01.648Z,57.9
2018-11-14T05:56:03.004Z,57.8
2018-11-14T05:57:04.325Z,57.8
2018-11-14T05:58:05.646Z,57.7
2018-11-14T05:59:07.274Z,57.7
2018-11-14T06:00:08.896Z,57.7
2018-11-14T06:01:10.237Z,57.7
2018-11-14T06:02:12.181Z,57.8
2018-11-14T06:03:13.293Z,57.8
2018-11-14T06:04:14.628Z,57.7
2018-11-14T06:05:16.544Z,57.9
2018-11-14T06:06:18.201Z,57.8
2018-11-14T06:07:20.417Z,57.7
2018-11-14T06:08:22.426Z,57.7
2018-11-14T06:09:23.771Z,57.9
2018-11-14T06:10:25.097Z,57.7
2018-11-14T06:11:26.717Z,57.6
2018-11-14T06:12:28.081Z,57.6
2018-11-14T06:13:29.432Z,57.9
2018-11-14T06:14:30.789Z,57.6
2018-11-14T06:15:32.402Z,57.7
2018-11-14T06:16:33.724Z,57.8
2018-11-14T06:17:35.342Z,57.6
2018-11-14T06:18:37.240Z,57.8
2018-11-14T06:19:39.138Z,57.7
2018-11-14T06:20:40.759Z,57.8
2018-11-14T06:21:42.397Z,57.8
2018-11-14T06:22:43.455Z,57.6
2018-11-14T06:23:44.590Z,57.7
2018-11-14T06:24:45.572Z,57.8
2018-11-14T06:25:47.199Z,57.7
2018-11-14T06:26:49.304Z,57.8
2018-11-14T06:27:50.903Z,57.6
2018-11-14T06:28:51.950Z,57.6
2018-11-14T06:29:53.428Z,57.7
2018-11-14T06:30:55.134Z,57.7
2018-11-14T06:31:57.035Z,58.1
2018-11-14T06:32:58.646Z,57.6
2018-11-14T06:34:00.541Z,57.5
2018-11-14T06:35:01.885Z,57.6
2018-11-14T06:36:03.205Z,57.8
2018-11-14T06:37:04.551Z,57.6
2018-11-14T06:38:05.872Z,57.6
2018-11-14T06:39:07.470Z,57.8
2018-11-14T06:40:08.815Z,57.6
2018-11-14T06:41:10.438Z,57.6
2018-11-14T06:42:12.060Z,58
2018-11-14T06:43:13.384Z,57.6
2018-11-14T06:44:15.003Z,57.8
2018-11-14T06:45:16.652Z,57.7
2018-11-14T06:46:18.271Z,57.7
2018-11-14T06:47:19.903Z,57.6
2018-11-14T06:48:21.500Z,57.8
2018-11-14T06:49:23.131Z,57.5
2018-11-14T06:50:24.729Z,57.6
2018-11-14T06:51:26.071Z,57.7
2018-11-14T06:52:27.672Z,57.6
2018-11-14T06:53:28.717Z,57.7
2018-11-14T06:54:30.342Z,58
2018-11-14T06:55:31.968Z,57.9
2018-11-14T06:56:33.291Z,58.1
2018-11-14T06:57:34.917Z,58.1
2018-11-14T06:58:36.639Z,58.1
2018-11-14T06:59:38.126Z,58.4
2018-11-14T07:00:40.189Z,58.2
2018-11-14T07:01:41.509Z,58.1
2018-11-14T07:02:43.408Z,58.6
2018-11-14T07:03:45.037Z,58
2018-11-14T07:04:46.403Z,58.2
2018-11-14T07:05:48.584Z,58.3
2018-11-14T07:06:50.952Z,58.3
2018-11-14T07:07:51.998Z,58.3
2018-11-14T07:08:53.627Z,58.3
2018-11-14T07:09:55.530Z,58.1
2018-11-14T07:10:57.297Z,58.1
2018-11-14T07:11:59.437Z,58.4
2018-11-14T07:13:01.061Z,58.3
2018-11-14T07:14:02.138Z,57.9
2018-11-14T07:15:03.178Z,58
2018-11-14T07:16:04.776Z,57.9
2018-11-14T07:17:06.120Z,58
2018-11-14T07:18:07.855Z,57.9
2018-11-14T07:19:09.477Z,57.9
2018-11-14T07:20:10.799Z,58
2018-11-14T07:21:12.725Z,57.7
2018-11-14T07:22:14.047Z,57.6
2018-11-14T07:23:15.946Z,57.6
2018-11-14T07:24:17.009Z,57.7
2018-11-14T07:25:18.341Z,57.5
2018-11-14T07:26:20.242Z,57.7
2018-11-14T07:27:21.865Z,57.6
2018-11-14T07:28:23.203Z,57.5
2018-11-14T07:29:24.549Z,57.5
2018-11-14T07:30:25.905Z,57.3
2018-11-14T07:31:27.217Z,57.6
2018-11-14T07:32:28.542Z,57.4
2018-11-14T07:33:29.886Z,57.2
2018-11-14T07:34:31.509Z,57.3
2018-11-14T07:35:32.831Z,57.2
2018-11-14T07:36:33.876Z,57.2
2018-11-14T07:37:35.279Z,57.4
2018-11-14T07:38:37.211Z,57.4
2018-11-14T07:39:38.842Z,57.1
2018-11-14T07:40:39.914Z,57.4
2018-11-14T07:41:41.827Z,57.3
2018-11-14T07:42:43.719Z,57.2
2018-11-14T07:43:45.107Z,57.6
2018-11-14T07:44:46.739Z,57.1
2018-11-14T07:45:48.443Z,57.3
2018-11-14T07:46:49.773Z,57.1
2018-11-14T07:47:50.819Z,57.1
2018-11-14T07:48:51.916Z,57.1
2018-11-14T07:49:53.639Z,57.1
2018-11-14T07:50:54.685Z,57.1
2018-11-14T07:51:56.306Z,57.1
2018-11-14T07:52:57.639Z,57.3
2018-11-14T07:53:59.270Z,57.3
2018-11-14T07:55:01.191Z,57.1
2018-11-14T07:56:02.811Z,57.1
2018-11-14T07:57:04.434Z,57.1
2018-11-14T07:58:05.774Z,57.2
2018-11-14T07:59:06.544Z,57.1
2018-11-14T08:00:08.481Z,57.1
2018-11-14T08:01:09.542Z,57.3
2018-11-14T08:02:11.095Z,57.3
2018-11-14T08:03:13.356Z,57.1
2018-11-14T08:04:14.682Z,57.2
2018-11-14T08:05:16.299Z,57
2018-11-14T08:06:18.364Z,57.3
2018-11-14T08:07:20.478Z,57.2
2018-11-14T08:08:22.309Z,57.2
2018-11-14T08:09:23.871Z,57.3
2018-11-14T08:10:25.013Z,57.2
2018-11-14T08:11:26.440Z,57.3
2018-11-14T08:12:27.809Z,57.2
2018-11-14T08:13:29.448Z,57.2
2018-11-14T08:14:30.773Z,57.2
2018-11-14T08:15:32.116Z,57.1
2018-11-14T08:16:34.021Z,57.1
2018-11-14T08:17:35.361Z,57
2018-11-14T08:18:37.306Z,57
2018-11-14T08:19:39.022Z,57
2018-11-14T08:20:40.915Z,57.1
2018-11-14T08:21:42.814Z,57
2018-11-14T08:22:44.456Z,57.1
2018-11-14T08:23:46.353Z,57.1
2018-11-14T08:24:47.721Z,57
2018-11-14T08:25:49.070Z,57.2
2018-11-14T08:26:50.988Z,56.9
2018-11-14T08:27:52.918Z,57.1
2018-11-14T08:28:54.517Z,57.1
2018-11-14T08:29:56.116Z,57.1
2018-11-14T08:30:57.741Z,57.1
2018-11-14T08:31:59.070Z,57.1
2018-11-14T08:33:00.120Z,57.4
2018-11-14T08:34:01.165Z,57.3
2018-11-14T08:35:03.063Z,57.4
2018-11-14T08:36:04.683Z,57.2
2018-11-14T08:37:06.585Z,57.4
2018-11-14T08:38:07.908Z,57.1
2018-11-14T08:39:09.614Z,57.4
2018-11-14T08:40:11.407Z,57.4
2018-11-14T08:41:13.007Z,57.4
2018-11-14T08:42:14.348Z,57.5
2018-11-14T08:43:16.010Z,57.4
2018-11-14T08:44:17.631Z,57.6
2018-11-14T08:45:18.676Z,57.5
2018-11-14T08:46:20.021Z,57.3
2018-11-14T08:47:21.344Z,57.4
2018-11-14T08:48:22.964Z,57.5
2018-11-14T08:49:24.317Z,57.5
2018-11-14T08:50:26.127Z,57.5
2018-11-14T08:51:28.183Z,57.4
2018-11-14T08:52:29.605Z,57.4
2018-11-14T08:53:31.211Z,57.6
2018-11-14T08:54:33.102Z,57.6
2018-11-14T08:55:34.424Z,57.7
2018-11-14T08:56:35.771Z,57.8
2018-11-14T08:57:36.809Z,57.9
2018-11-14T08:58:38.151Z,57.9
2018-11-14T08:59:40.054Z,57.9
2018-11-14T09:00:41.100Z,57.5
2018-11-14T09:01:42.720Z,57.7
2018-11-14T09:02:44.618Z,57.6
2018-11-14T09:03:46.061Z,57.6
2018-11-14T09:04:47.686Z,57.5
2018-11-14T09:05:49.003Z,57.8
2018-11-14T09:06:50.900Z,57.7
2018-11-14T09:07:52.867Z,57.6
2018-11-14T09:08:54.370Z,57.6
2018-11-14T09:09:55.987Z,57.7
2018-11-14T09:10:57.751Z,57.8
2018-11-14T09:11:59.251Z,57.9
2018-11-14T09:13:00.699Z,57.6
2018-11-14T09:14:02.971Z,57.8
2018-11-14T09:15:04.478Z,57.5
2018-11-14T09:16:06.128Z,57.5
2018-11-14T09:17:07.762Z,57.8
2018-11-14T09:18:09.563Z,58
2018-11-14T09:19:11.688Z,58
2018-11-14T09:20:13.013Z,57.9
2018-11-14T09:21:14.912Z,57.9
2018-11-14T09:22:16.534Z,57.9
2018-11-14T09:23:18.158Z,57.9
2018-11-14T09:24:19.507Z,57.9
2018-11-14T09:25:21.149Z,58
2018-11-14T09:26:23.046Z,58
2018-11-14T09:27:24.401Z,57.9
2018-11-14T09:28:26.058Z,57.8
2018-11-14T09:29:27.650Z,58.3
2018-11-14T09:30:29.280Z,58
2018-11-14T09:31:30.906Z,58
2018-11-14T09:32:32.532Z,58.3
2018-11-14T09:33:33.877Z,58.4
2018-11-14T09:34:35.274Z,57.9
2018-11-14T09:35:36.928Z,58
2018-11-14T09:36:37.700Z,58.1
2018-11-14T09:37:39.323Z,57.9
2018-11-14T09:38:40.941Z,58.1
2018-11-14T09:39:41.988Z,58.2
2018-11-14T09:40:43.982Z,58.1
2018-11-14T09:41:45.654Z,58.2
2018-11-14T09:42:47.255Z,58
2018-11-14T09:43:48.715Z,58.2
2018-11-14T09:44:50.118Z,58
2018-11-14T09:45:51.446Z,58.1
2018-11-14T09:46:53.046Z,58.1
2018-11-14T09:47:54.405Z,57.9
2018-11-14T09:48:57.602Z,58.2
2018-11-14T09:49:59.569Z,58.3
2018-11-14T09:51:00.903Z,58.2
2018-11-14T09:52:02.805Z,58
2018-11-14T09:53:04.515Z,58.2
2018-11-14T09:54:05.955Z,58.1
2018-11-14T09:55:07.855Z,58
2018-11-14T09:56:09.824Z,58
2018-11-14T09:57:11.516Z,58
2018-11-14T09:58:13.280Z,58
2018-11-14T09:59:14.930Z,58
2018-11-14T10:00:16.747Z,57.8
2018-11-14T10:01:18.141Z,58.3
2018-11-14T10:02:20.467Z,58.4
2018-11-14T10:03:22.196Z,58.3
2018-11-14T10:04:23.523Z,58.3
2018-11-14T10:05:25.238Z,58.1
2018-11-14T10:06:27.330Z,57.9
2018-11-14T10:07:28.681Z,57.9
2018-11-14T10:08:30.343Z,58
2018-11-14T10:09:32.428Z,57.9
2018-11-14T10:10:33.777Z,58.3
2018-11-14T10:11:35.377Z,58.4
2018-11-14T10:12:37.003Z,58.2
2018-11-14T10:13:38.349Z,58.2
2018-11-14T10:14:39.972Z,58.2
2018-11-14T10:15:41.620Z,58.2
2018-11-14T10:16:43.022Z,58.1
2018-11-14T10:17:44.653Z,58.4
2018-11-14T10:18:46.301Z,58
2018-11-14T10:19:47.627Z,58.1
2018-11-14T10:20:49.229Z,58.1
2018-11-14T10:21:50.637Z,58.2
2018-11-14T10:22:52.031Z,58.1
2018-11-14T10:23:53.935Z,58.2
2018-11-14T10:24:55.568Z,58.3
2018-11-14T10:25:57.625Z,58.2
2018-11-14T10:26:58.692Z,58.3
2018-11-14T10:28:00.135Z,58.2
2018-11-14T10:29:01.210Z,58.4
2018-11-14T10:30:02.850Z,58.4
2018-11-14T10:31:04.205Z,58.2
2018-11-14T10:32:06.112Z,58.3
2018-11-14T10:33:08.010Z,58.2
2018-11-14T10:34:09.908Z,58.1
2018-11-14T10:35:11.276Z,58.2
2018-11-14T10:36:12.929Z,57.9
2018-11-14T10:37:14.545Z,58.2
2018-11-14T10:38:16.171Z,58.1
2018-11-14T10:39:17.789Z,58.1
2018-11-14T10:40:19.689Z,58.1
2018-11-14T10:41:21.324Z,58.3
2018-11-14T10:42:22.944Z,58.3
2018-11-14T10:43:24.577Z,58.5
2018-11-14T10:44:26.197Z,58.4
2018-11-14T10:45:27.516Z,58.5
2018-11-14T10:46:29.124Z,58.1
2018-11-14T10:47:30.726Z,58.3
2018-11-14T10:48:32.623Z,58.3
2018-11-14T10:49:33.670Z,58.1
2018-11-14T10:50:35.571Z,58.1
2018-11-14T10:51:37.260Z,58.2
2018-11-14T10:52:38.602Z,58.2
2018-11-14T10:53:40.223Z,58.5
2018-11-14T10:54:40.994Z,58.4
2018-11-14T10:55:42.891Z,58.4
2018-11-14T10:56:44.234Z,58.3
2018-11-14T10:57:45.584Z,58.5
2018-11-14T10:58:46.926Z,58.2
2018-11-14T10:59:48.550Z,58.4
2018-11-14T11:00:50.171Z,58.6
2018-11-14T11:01:52.073Z,58.1
2018-11-14T11:02:53.396Z,58.6
2018-11-14T11:03:54.744Z,58.5
2018-11-14T11:04:56.670Z,58.4
2018-11-14T11:05:57.717Z,58.7
2018-11-14T11:06:59.319Z,58.6
2018-11-14T11:08:01.077Z,58.6
2018-11-14T11:09:02.991Z,58.2
2018-11-14T11:10:04.887Z,58.1
2018-11-14T11:11:06.513Z,58.1
2018-11-14T11:12:08.408Z,58.6
2018-11-14T11:13:10.306Z,58.2
2018-11-14T11:14:11.941Z,58.2
2018-11-14T11:15:13.284Z,58.7
2018-11-14T11:16:15.274Z,58.7
2018-11-14T11:17:16.903Z,58.1
2018-11-14T11:18:18.530Z,58.1
2018-11-14T11:19:20.134Z,58.2
2018-11-14T11:20:21.479Z,58.1
2018-11-14T11:21:22.830Z,58.7
2018-11-14T11:22:24.180Z,57.9
2018-11-14T11:23:26.218Z,58.6
2018-11-14T11:24:28.034Z,58.1
2018-11-14T11:25:29.360Z,58.6
2018-11-14T11:26:30.708Z,58.7
2018-11-14T11:27:32.602Z,58.3
2018-11-14T11:28:34.226Z,58.6
2018-11-14T11:29:35.822Z,58.5
2018-11-14T11:30:37.727Z,58.6
2018-11-14T11:31:38.800Z,58.5
2018-11-14T11:32:40.698Z,58.7
2018-11-14T11:33:42.029Z,58.6
2018-11-14T11:34:43.651Z,58.6
2018-11-14T11:35:45.551Z,58.5
2018-11-14T11:36:46.876Z,58.2
2018-11-14T11:37:48.497Z,58.3
2018-11-14T11:38:49.822Z,58.3
2018-11-14T11:39:51.447Z,58.7
2018-11-14T11:40:53.346Z,58.5
2018-11-14T11:41:54.973Z,58.4
2018-11-14T11:42:56.874Z,58.4
2018-11-14T11:43:58.496Z,58.1
2018-11-14T11:44:59.818Z,58.6
2018-11-14T11:46:01.442Z,58.3
2018-11-14T11:47:02.768Z,58.1
2018-11-14T11:48:04.090Z,58.8
2018-11-14T11:49:05.716Z,58.1
2018-11-14T11:50:07.055Z,58.5
2018-11-14T11:51:08.839Z,58.3
2018-11-14T11:52:10.435Z,58.2
2018-11-14T11:53:11.796Z,58.6
2018-11-14T11:54:13.114Z,58.2
2018-11-14T11:55:15.012Z,58.3
2018-11-14T11:56:16.916Z,58.5
2018-11-14T11:57:18.538Z,58.6
2018-11-14T11:58:20.523Z,58.7
2018-11-14T11:59:22.309Z,58.8
2018-11-14T12:00:24.145Z,58.5
2018-11-14T12:01:25.719Z,58.6
2018-11-14T12:02:27.619Z,58.7
2018-11-14T12:03:29.241Z,58.5
2018-11-14T12:04:30.586Z,58.1
2018-11-14T12:05:31.927Z,58.5
2018-11-14T12:06:33.903Z,58.1
2018-11-14T12:07:35.836Z,58.1
2018-11-14T12:08:37.458Z,58.3
2018-11-14T12:09:38.805Z,58.2
2018-11-14T12:10:40.632Z,58.5
2018-11-14T12:11:42.308Z,58.5
2018-11-14T12:12:44.291Z,58.5
2018-11-14T12:13:45.813Z,58.4
2018-11-14T12:14:47.351Z,58.4
2018-11-14T12:15:49.250Z,58.3
2018-11-14T12:16:50.943Z,58.3
2018-11-14T12:17:52.810Z,58.4
2018-11-14T12:18:55.029Z,58.3
2018-11-14T12:19:57.045Z,58.4
2018-11-14T12:20:58.395Z,58.4
2018-11-14T12:21:59.722Z,58.2
2018-11-14T12:23:00.787Z,58.4
2018-11-14T12:24:02.688Z,58.5
2018-11-14T12:25:04.601Z,58.3
2018-11-14T12:26:06.281Z,58.2
2018-11-14T12:27:07.411Z,58.3
2018-11-14T12:28:09.485Z,58.3
2018-11-14T12:29:11.385Z,58.1
2018-11-14T12:30:13.421Z,58.1
2018-11-14T12:31:16.187Z,58.7
2018-11-14T12:32:17.760Z,58.5
2018-11-14T12:33:18.806Z,58.8
2018-11-14T12:34:20.130Z,58.4
2018-11-14T12:35:21.710Z,58.7
2018-11-14T12:36:23.607Z,58.7
2018-11-14T12:37:25.231Z,58.2
2018-11-14T12:38:26.858Z,58.2
2018-11-14T12:39:28.180Z,58.1
2018-11-14T12:40:29.524Z,58.2
2018-11-14T12:41:31.152Z,58.1
2018-11-14T12:42:32.494Z,58.1
2018-11-14T12:43:34.150Z,58.6
2018-11-14T12:44:36.047Z,58.3
2018-11-14T12:45:38.157Z,58.4
2018-11-14T12:46:39.780Z,58.6
2018-11-14T12:47:41.683Z,58.6
2018-11-14T12:48:43.284Z,58.4
2018-11-14T12:49:44.907Z,58.6
2018-11-14T12:50:46.233Z,58.6
2018-11-14T12:51:48.132Z,58.4
2018-11-14T12:52:50.324Z,58.8
2018-11-14T12:53:52.661Z,58.6
2018-11-14T12:54:54.283Z,58.3
2018-11-14T12:55:55.629Z,58.6
2018-11-14T12:56:57.537Z,58.7
2018-11-14T12:57:58.861Z,59
2018-11-14T12:58:59.908Z,58.8
2018-11-14T13:00:01.329Z,58.7
2018-11-14T13:01:02.826Z,58.7
2018-11-14T13:02:04.450Z,59
2018-11-14T13:03:05.777Z,58.6
2018-11-14T13:04:07.120Z,58.8
2018-11-14T13:05:08.453Z,58.1
2018-11-14T13:06:10.350Z,58.5
2018-11-14T13:07:11.974Z,58.5
2018-11-14T13:08:13.304Z,58.3
2018-11-14T13:09:15.205Z,58.6
2018-11-14T13:10:16.837Z,58.2
2018-11-14T13:11:18.736Z,58.6
2018-11-14T13:12:20.635Z,58.6
2018-11-14T13:13:21.680Z,58.5
2018-11-14T13:14:23.580Z,58.6
2018-11-14T13:15:24.628Z,58.5
2018-11-14T13:16:25.954Z,58.3
2018-11-14T13:17:27.287Z,58.6
2018-11-14T13:18:28.887Z,58.4
2018-11-14T13:19:30.788Z,58.5
2018-11-14T13:20:31.899Z,58.3
2018-11-14T13:21:33.796Z,58.3
2018-11-14T13:22:35.698Z,58.6
2018-11-14T13:23:37.044Z,58.7
2018-11-14T13:24:38.945Z,58.5
2018-11-14T13:25:40.545Z,58.1
2018-11-14T13:26:41.872Z,58.1
2018-11-14T13:27:42.920Z,58.1
2018-11-14T13:28:43.989Z,58
2018-11-14T13:29:45.013Z,58.6
2018-11-14T13:30:46.359Z,58.7
2018-11-14T13:31:47.412Z,58.6
2018-11-14T13:32:48.461Z,58.5
2018-11-14T13:33:50.086Z,58.5
2018-11-14T13:34:51.704Z,58.6
2018-11-14T13:35:52.474Z,58.4
2018-11-14T13:36:54.096Z,58.4
2018-11-14T13:37:55.720Z,58.2
2018-11-14T13:38:57.339Z,57.9
2018-11-14T13:39:58.960Z,58.6
2018-11-14T13:40:59.733Z,58.6
2018-11-14T13:42:00.510Z,58.7
2018-11-14T13:43:02.265Z,58.2